Forside
METAR-TAF:

METAR-TAF

Lufthavne :

Waukegan Regional Airport

Waukegan, Illinois, USA

Breddekreds: 42-25N, længdekreds: 087-52W, højde: 222 m

Aktuelle vejr

Denne rapport blev lavet for 43 minutter siden, kl. 18:55 UTC
Vind 13 kt fra sydsydvest
Temperatur 7°C
Fugtighed 42%
Tryk 1020 hPa
Sigt: 16.1 km
skyfri

METAR: KUGN 221855Z 21013KT 10SM CLR 07/M05 A3013 RMK AO2 SLP212 T00721050

Tid: 13:38 (19:38 UTC)


TAF: fraværende

Vejrobservationer og prognoser fra mere end 4000 lufthavne (METAR og TAF).

De gule og røde prikker repræsenterer de meteorologiske stationer.

Flyt musen over at se navnet på stationen.

Så klik over at se vejr observationer og prognoser.

At skifte det kort: Klik på de grønne knapper med et sort kors for at zoome ind; på den grønne knap med en bindestreg for at zoome ud; eller på de grønne pile for tilstødende kort.


METAR-TAF: